sensor_id;sensor_type;location;lat;lon;timestamp;P1;durP1;ratioP1;P2;durP2;ratioP2
64452;SDS011;50813;52.654;6.766;2023-04-03T00:01:34;1.8;;;1.2;;
64452;SDS011;50813;52.654;6.766;2023-04-03T00:04:47;4.0;;;1.5;;
64452;SDS011;50813;52.654;6.766;2023-04-03T00:06:25;3.7;;;1.4;;
64452;SDS011;50813;52.654;6.766;2023-04-03T00:08:02;3.6;;;2.0;;
64452;SDS011;50813;52.654;6.766;2023-04-03T00:09:39;2.5;;;1.4;;
64452;SDS011;50813;52.654;6.766;2023-04-03T00:12:52;2.7;;;1.4;;
64452;SDS011;50813;52.654;6.766;2023-04-03T00:14:29;4.2;;;1.3;;
64452;SDS011;50813;52.654;6.766;2023-04-03T00:16:05;19.2;;;3.8;;
64452;SDS011;50813;52.654;6.766;2023-04-03T00:19:20;2.5;;;1.6;;
64452;SDS011;50813;52.654;6.766;2023-04-03T00:20:57;2.21;;;1.3;;
64452;SDS011;50813;52.654;6.766;2023-04-03T00:22:34;3.8;;;1.6;;
64452;SDS011;50813;52.654;6.766;2023-04-03T00:24:10;4.5;;;1.6;;
64452;SDS011;50813;52.654;6.766;2023-04-03T00:27:24;3.4;;;1.7;;
64452;SDS011;50813;52.654;6.766;2023-04-03T00:29:00;11.8;;;2.21;;
64452;SDS011;50813;52.654;6.766;2023-04-03T00:30:36;4.91;;;1.8;;
64452;SDS011;50813;52.654;6.766;2023-04-03T00:33:49;2.4;;;1.5;;
64452;SDS011;50813;52.654;6.766;2023-04-03T00:35:27;3.1;;;1.5;;
64452;SDS011;50813;52.654;6.766;2023-04-03T00:37:05;4.1;;;1.6;;
64452;SDS011;50813;52.654;6.766;2023-04-03T00:40:17;4.1;;;1.7;;
64452;SDS011;50813;52.654;6.766;2023-04-03T00:41:54;3.2;;;1.4;;
64452;SDS011;50813;52.654;6.766;2023-04-03T00:43:30;4.91;;;1.4;;
64452;SDS011;50813;52.654;6.766;2023-04-03T00:45:25;5.11;;;1.8;;
64452;SDS011;50813;52.654;6.766;2023-04-03T00:48:47;4.91;;;1.5;;
64452;SDS011;50813;52.654;6.766;2023-04-03T00:50:25;3.4;;;1.5;;
64452;SDS011;50813;52.654;6.766;2023-04-03T00:52:03;4.0;;;1.7;;
64452;SDS011;50813;52.654;6.766;2023-04-03T00:53:46;3.3;;;1.6;;
64452;SDS011;50813;52.654;6.766;2023-04-03T00:57:01;4.1;;;1.7;;
64452;SDS011;50813;52.654;6.766;2023-04-03T00:58:42;4.5;;;1.5;;
64452;SDS011;50813;52.654;6.766;2023-04-03T01:00:25;5.11;;;1.8;;
64452;SDS011;50813;52.654;6.766;2023-04-03T01:02:02;2.9;;;1.6;;
64452;SDS011;50813;52.654;6.766;2023-04-03T01:05:15;3.3;;;1.6;;
64452;SDS011;50813;52.654;6.766;2023-04-03T01:06:53;11.3;;;2.9;;
64452;SDS011;50813;52.654;6.766;2023-04-03T01:08:32;3.6;;;1.4;;
64452;SDS011;50813;52.654;6.766;2023-04-03T01:11:50;4.3;;;1.6;;
64452;SDS011;50813;52.654;6.766;2023-04-03T01:13:27;4.5;;;1.6;;
64452;SDS011;50813;52.654;6.766;2023-04-03T01:15:07;4.8;;;1.5;;
64452;SDS011;50813;52.654;6.766;2023-04-03T01:16:51;4.3;;;1.6;;
64452;SDS011;50813;52.654;6.766;2023-04-03T01:20:27;3.1;;;1.6;;
64452;SDS011;50813;52.654;6.766;2023-04-03T01:23:54;4.41;;;1.8;;
64452;SDS011;50813;52.654;6.766;2023-04-03T01:25:44;4.0;;;1.7;;
64452;SDS011;50813;52.654;6.766;2023-04-03T01:27:24;5.2;;;1.8;;
64452;SDS011;50813;52.654;6.766;2023-04-03T01:29:01;4.3;;;2.31;;
64452;SDS011;50813;52.654;6.766;2023-04-03T01:32:23;41.4;;;4.8;;
64452;SDS011;50813;52.654;6.766;2023-04-03T01:34:00;3.0;;;1.5;;
64452;SDS011;50813;52.654;6.766;2023-04-03T01:35:37;4.61;;;1.8;;
64452;SDS011;50813;52.654;6.766;2023-04-03T01:38:51;3.3;;;1.6;;
64452;SDS011;50813;52.654;6.766;2023-04-03T01:40:28;5.7;;;2.1;;
64452;SDS011;50813;52.654;6.766;2023-04-03T01:42:05;4.7;;;2.31;;
64452;SDS011;50813;52.654;6.766;2023-04-03T01:43:42;5.11;;;2.0;;
64452;SDS011;50813;52.654;6.766;2023-04-03T01:46:55;5.6;;;1.7;;
64452;SDS011;50813;52.654;6.766;2023-04-03T01:48:32;3.3;;;1.7;;
64452;SDS011;50813;52.654;6.766;2023-04-03T01:50:08;4.7;;;2.1;;
64452;SDS011;50813;52.654;6.766;2023-04-03T01:53:22;4.3;;;2.21;;
64452;SDS011;50813;52.654;6.766;2023-04-03T01:54:58;4.8;;;2.4;;
64452;SDS011;50813;52.654;6.766;2023-04-03T01:56:34;5.2;;;2.0;;
64452;SDS011;50813;52.654;6.766;2023-04-03T01:59:47;5.11;;;2.0;;
64452;SDS011;50813;52.654;6.766;2023-04-03T02:01:24;6.3;;;2.4;;
64452;SDS011;50813;52.654;6.766;2023-04-03T02:03:01;4.1;;;1.9;;
64452;SDS011;50813;52.654;6.766;2023-04-03T02:04:38;4.61;;;1.9;;
64452;SDS011;50813;52.654;6.766;2023-04-03T02:07:51;6.4;;;2.1;;
64452;SDS011;50813;52.654;6.766;2023-04-03T02:09:27;21.8;;;3.1;;
64452;SDS011;50813;52.654;6.766;2023-04-03T02:11:04;7.6;;;2.4;;
64452;SDS011;50813;52.654;6.766;2023-04-03T02:15:52;7.6;;;2.0;;
64452;SDS011;50813;52.654;6.766;2023-04-03T02:17:28;5.11;;;2.31;;
64452;SDS011;50813;52.654;6.766;2023-04-03T02:20:41;4.5;;;2.0;;
64452;SDS011;50813;52.654;6.766;2023-04-03T02:22:17;6.2;;;2.0;;
64452;SDS011;50813;52.654;6.766;2023-04-03T02:23:53;4.2;;;1.8;;
64452;SDS011;50813;52.654;6.766;2023-04-03T02:25:29;4.8;;;1.9;;
64452;SDS011;50813;52.654;6.766;2023-04-03T02:28:44;4.1;;;2.1;;
64452;SDS011;50813;52.654;6.766;2023-04-03T02:30:20;6.0;;;2.21;;
64452;SDS011;50813;52.654;6.766;2023-04-03T02:31:56;4.61;;;2.0;;
64452;SDS011;50813;52.654;6.766;2023-04-03T02:35:10;6.2;;;3.0;;
64452;SDS011;50813;52.654;6.766;2023-04-03T02:36:47;5.9;;;2.4;;
64452;SDS011;50813;52.654;6.766;2023-04-03T02:38:23;4.3;;;2.21;;
64452;SDS011;50813;52.654;6.766;2023-04-03T02:41:36;4.7;;;2.1;;
64452;SDS011;50813;52.654;6.766;2023-04-03T02:43:13;6.7;;;2.21;;
64452;SDS011;50813;52.654;6.766;2023-04-03T02:44:49;4.41;;;2.1;;
64452;SDS011;50813;52.654;6.766;2023-04-03T02:46:25;4.8;;;2.4;;
64452;SDS011;50813;52.654;6.766;2023-04-03T02:49:37;6.2;;;2.21;;
64452;SDS011;50813;52.654;6.766;2023-04-03T02:51:14;5.8;;;2.31;;
64452;SDS011;50813;52.654;6.766;2023-04-03T02:52:50;5.11;;;2.4;;
64452;SDS011;50813;52.654;6.766;2023-04-03T02:56:02;4.61;;;2.4;;
64452;SDS011;50813;52.654;6.766;2023-04-03T02:57:38;6.6;;;2.21;;
64452;SDS011;50813;52.654;6.766;2023-04-03T02:59:15;7.1;;;2.1;;
64452;SDS011;50813;52.654;6.766;2023-04-03T03:02:28;3.2;;;2.21;;
64452;SDS011;50813;52.654;6.766;2023-04-03T03:04:04;7.1;;;2.31;;
64452;SDS011;50813;52.654;6.766;2023-04-03T03:05:40;33.8;;;3.4;;
64452;SDS011;50813;52.654;6.766;2023-04-03T03:08:53;4.8;;;2.21;;
64452;SDS011;50813;52.654;6.766;2023-04-03T03:10:29;5.2;;;2.21;;
64452;SDS011;50813;52.654;6.766;2023-04-03T03:12:05;5.4;;;2.4;;
64452;SDS011;50813;52.654;6.766;2023-04-03T03:13:41;5.9;;;2.6;;
64452;SDS011;50813;52.654;6.766;2023-04-03T03:16:54;14.2;;;3.1;;
64452;SDS011;50813;52.654;6.766;2023-04-03T03:18:30;14.8;;;3.5;;
64452;SDS011;50813;52.654;6.766;2023-04-03T03:20:07;4.91;;;2.31;;
64452;SDS011;50813;52.654;6.766;2023-04-03T03:23:20;3.8;;;2.31;;
64452;SDS011;50813;52.654;6.766;2023-04-03T03:25:00;8.5;;;3.4;;
64452;SDS011;50813;52.654;6.766;2023-04-03T03:26:36;6.7;;;2.4;;
64452;SDS011;50813;52.654;6.766;2023-04-03T03:29:49;5.8;;;2.6;;
64452;SDS011;50813;52.654;6.766;2023-04-03T03:31:26;6.2;;;2.6;;
64452;SDS011;50813;52.654;6.766;2023-04-03T03:33:02;6.4;;;3.3;;
64452;SDS011;50813;52.654;6.766;2023-04-03T03:34:39;22.2;;;3.3;;
64452;SDS011;50813;52.654;6.766;2023-04-03T03:37:51;12.3;;;4.1;;
64452;SDS011;50813;52.654;6.766;2023-04-03T03:39:27;6.6;;;2.9;;
64452;SDS011;50813;52.654;6.766;2023-04-03T03:41:04;8.1;;;2.4;;
64452;SDS011;50813;52.654;6.766;2023-04-03T03:44:16;5.7;;;2.5;;
64452;SDS011;50813;52.654;6.766;2023-04-03T03:45:52;6.9;;;2.5;;
64452;SDS011;50813;52.654;6.766;2023-04-03T03:47:29;6.7;;;2.9;;
64452;SDS011;50813;52.654;6.766;2023-04-03T03:50:42;5.0;;;2.6;;
64452;SDS011;50813;52.654;6.766;2023-04-03T03:52:18;7.3;;;2.6;;
64452;SDS011;50813;52.654;6.766;2023-04-03T03:53:54;5.6;;;2.4;;
64452;SDS011;50813;52.654;6.766;2023-04-03T03:55:30;9.1;;;2.6;;
64452;SDS011;50813;52.654;6.766;2023-04-03T03:58:44;4.8;;;2.9;;
64452;SDS011;50813;52.654;6.766;2023-04-03T04:00:20;6.0;;;2.5;;
64452;SDS011;50813;52.654;6.766;2023-04-03T04:05:09;7.0;;;2.9;;
64452;SDS011;50813;52.654;6.766;2023-04-03T04:06:45;5.0;;;2.8;;
64452;SDS011;50813;52.654;6.766;2023-04-03T04:08:21;6.5;;;2.4;;
64452;SDS011;50813;52.654;6.766;2023-04-03T04:11:34;6.1;;;2.5;;
64452;SDS011;50813;52.654;6.766;2023-04-03T04:13:10;5.3;;;2.5;;
64452;SDS011;50813;52.654;6.766;2023-04-03T04:14:46;6.2;;;2.6;;
64452;SDS011;50813;52.654;6.766;2023-04-03T04:16:22;4.91;;;2.7;;
64452;SDS011;50813;52.654;6.766;2023-04-03T04:19:35;10.7;;;2.9;;
64452;SDS011;50813;52.654;6.766;2023-04-03T04:21:11;4.91;;;2.5;;
64452;SDS011;50813;52.654;6.766;2023-04-03T04:22:47;5.2;;;2.9;;
64452;SDS011;50813;52.654;6.766;2023-04-03T04:26:00;8.2;;;2.8;;
64452;SDS011;50813;52.654;6.766;2023-04-03T04:27:36;5.5;;;3.0;;
64452;SDS011;50813;52.654;6.766;2023-04-03T04:29:13;6.6;;;2.6;;
64452;SDS011;50813;52.654;6.766;2023-04-03T04:32:25;5.6;;;2.7;;
64452;SDS011;50813;52.654;6.766;2023-04-03T04:34:02;6.8;;;2.7;;
64452;SDS011;50813;52.654;6.766;2023-04-03T04:35:38;7.4;;;2.5;;
64452;SDS011;50813;52.654;6.766;2023-04-03T04:38:50;8.31;;;2.9;;
64452;SDS011;50813;52.654;6.766;2023-04-03T04:40:27;8.5;;;2.9;;
64452;SDS011;50813;52.654;6.766;2023-04-03T04:42:04;7.9;;;2.9;;
64452;SDS011;50813;52.654;6.766;2023-04-03T04:43:40;6.8;;;3.3;;
64452;SDS011;50813;52.654;6.766;2023-04-03T04:46:53;6.9;;;3.0;;
64452;SDS011;50813;52.654;6.766;2023-04-03T04:48:28;4.61;;;2.7;;
64452;SDS011;50813;52.654;6.766;2023-04-03T04:50:05;6.2;;;2.7;;
64452;SDS011;50813;52.654;6.766;2023-04-03T04:53:18;5.7;;;2.7;;
64452;SDS011;50813;52.654;6.766;2023-04-03T04:54:54;6.1;;;2.6;;
64452;SDS011;50813;52.654;6.766;2023-04-03T04:56:30;27.8;;;3.6;;
64452;SDS011;50813;52.654;6.766;2023-04-03T04:59:43;8.0;;;2.8;;
64452;SDS011;50813;52.654;6.766;2023-04-03T05:01:19;10.3;;;2.9;;
64452;SDS011;50813;52.654;6.766;2023-04-03T05:02:55;7.3;;;2.9;;
64452;SDS011;50813;52.654;6.766;2023-04-03T05:04:31;6.1;;;3.1;;
64452;SDS011;50813;52.654;6.766;2023-04-03T05:07:44;9.1;;;3.0;;
64452;SDS011;50813;52.654;6.766;2023-04-03T05:09:20;7.1;;;3.2;;
64452;SDS011;50813;52.654;6.766;2023-04-03T05:10:56;26.4;;;3.7;;
64452;SDS011;50813;52.654;6.766;2023-04-03T05:14:09;6.5;;;3.6;;
64452;SDS011;50813;52.654;6.766;2023-04-03T05:15:45;10.6;;;3.2;;
64452;SDS011;50813;52.654;6.766;2023-04-03T05:17:22;9.21;;;3.5;;
64452;SDS011;50813;52.654;6.766;2023-04-03T05:20:34;9.9;;;3.2;;
64452;SDS011;50813;52.654;6.766;2023-04-03T05:22:11;6.1;;;3.1;;
64452;SDS011;50813;52.654;6.766;2023-04-03T05:23:47;8.9;;;3.3;;
64452;SDS011;50813;52.654;6.766;2023-04-03T05:26:59;8.9;;;3.3;;
64452;SDS011;50813;52.654;6.766;2023-04-03T05:28:35;9.1;;;3.5;;
64452;SDS011;50813;52.654;6.766;2023-04-03T05:30:12;7.5;;;3.4;;
64452;SDS011;50813;52.654;6.766;2023-04-03T05:31:49;8.2;;;3.1;;
64452;SDS011;50813;52.654;6.766;2023-04-03T05:35:02;7.3;;;3.1;;
64452;SDS011;50813;52.654;6.766;2023-04-03T05:36:40;6.8;;;2.9;;
64452;SDS011;50813;52.654;6.766;2023-04-03T05:38:16;6.1;;;2.9;;
64452;SDS011;50813;52.654;6.766;2023-04-03T05:41:28;8.81;;;3.5;;
64452;SDS011;50813;52.654;6.766;2023-04-03T05:43:04;7.7;;;2.9;;
64452;SDS011;50813;52.654;6.766;2023-04-03T05:44:40;8.6;;;3.9;;
64452;SDS011;50813;52.654;6.766;2023-04-03T05:47:55;6.4;;;2.7;;
64452;SDS011;50813;52.654;6.766;2023-04-03T05:49:31;8.9;;;2.8;;
64452;SDS011;50813;52.654;6.766;2023-04-03T05:51:11;7.0;;;3.1;;
64452;SDS011;50813;52.654;6.766;2023-04-03T05:52:50;7.0;;;2.6;;
64452;SDS011;50813;52.654;6.766;2023-04-03T05:56:07;6.5;;;2.7;;
64452;SDS011;50813;52.654;6.766;2023-04-03T05:57:43;6.5;;;2.7;;
64452;SDS011;50813;52.654;6.766;2023-04-03T05:59:20;7.4;;;2.7;;
64452;SDS011;50813;52.654;6.766;2023-04-03T06:02:33;7.6;;;2.7;;
64452;SDS011;50813;52.654;6.766;2023-04-03T06:04:09;5.4;;;2.8;;
64452;SDS011;50813;52.654;6.766;2023-04-03T06:05:46;4.61;;;2.7;;
64452;SDS011;50813;52.654;6.766;2023-04-03T06:07:23;5.9;;;3.0;;
64452;SDS011;50813;52.654;6.766;2023-04-03T06:10:36;4.41;;;2.4;;
64452;SDS011;50813;52.654;6.766;2023-04-03T06:12:13;5.11;;;2.8;;
64452;SDS011;50813;52.654;6.766;2023-04-03T06:13:49;6.1;;;2.9;;
64452;SDS011;50813;52.654;6.766;2023-04-03T06:17:02;5.3;;;2.31;;
64452;SDS011;50813;52.654;6.766;2023-04-03T06:18:39;5.4;;;2.0;;
64452;SDS011;50813;52.654;6.766;2023-04-03T06:25:13;5.4;;;2.31;;
64452;SDS011;50813;52.654;6.766;2023-04-03T06:26:49;49.4;;;5.4;;
64452;SDS011;50813;52.654;6.766;2023-04-03T06:28:26;33.71;;;3.8;;
64452;SDS011;50813;52.654;6.766;2023-04-03T06:31:38;6.8;;;2.8;;
64452;SDS011;50813;52.654;6.766;2023-04-03T06:33:14;6.6;;;2.31;;
64452;SDS011;50813;52.654;6.766;2023-04-03T06:34:50;5.7;;;2.31;;
64452;SDS011;50813;52.654;6.766;2023-04-03T06:38:02;30.3;;;3.7;;
64452;SDS011;50813;52.654;6.766;2023-04-03T06:39:38;80.5;;;4.7;;
64452;SDS011;50813;52.654;6.766;2023-04-03T06:41:15;4.7;;;2.21;;
64452;SDS011;50813;52.654;6.766;2023-04-03T06:42:52;6.7;;;2.1;;
64452;SDS011;50813;52.654;6.766;2023-04-03T06:46:04;23.7;;;2.8;;
64452;SDS011;50813;52.654;6.766;2023-04-03T06:47:40;5.8;;;2.31;;
64452;SDS011;50813;52.654;6.766;2023-04-03T06:49:16;12.2;;;2.4;;
64452;SDS011;50813;52.654;6.766;2023-04-03T06:52:29;4.2;;;1.8;;
64452;SDS011;50813;52.654;6.766;2023-04-03T06:54:05;6.1;;;1.8;;
64452;SDS011;50813;52.654;6.766;2023-04-03T06:55:42;11.5;;;2.7;;
64452;SDS011;50813;52.654;6.766;2023-04-03T06:58:55;33.8;;;4.41;;
64452;SDS011;50813;52.654;6.766;2023-04-03T07:00:31;6.4;;;2.5;;
64452;SDS011;50813;52.654;6.766;2023-04-03T07:02:08;15.6;;;3.9;;
64452;SDS011;50813;52.654;6.766;2023-04-03T07:03:47;7.0;;;3.4;;
64452;SDS011;50813;52.654;6.766;2023-04-03T07:07:01;26.6;;;2.6;;
64452;SDS011;50813;52.654;6.766;2023-04-03T07:08:37;4.3;;;1.9;;
64452;SDS011;50813;52.654;6.766;2023-04-03T07:10:14;106.0;;;6.2;;
64452;SDS011;50813;52.654;6.766;2023-04-03T07:13:27;6.1;;;1.8;;
64452;SDS011;50813;52.654;6.766;2023-04-03T07:15:03;72.91;;;6.4;;
64452;SDS011;50813;52.654;6.766;2023-04-03T07:16:40;34.9;;;2.7;;
64452;SDS011;50813;52.654;6.766;2023-04-03T07:19:53;34.9;;;2.7;;
64452;SDS011;50813;52.654;6.766;2023-04-03T07:21:29;52.2;;;2.9;;
64452;SDS011;50813;52.654;6.766;2023-04-03T07:23:06;40.6;;;4.1;;
64452;SDS011;50813;52.654;6.766;2023-04-03T07:24:41;7.5;;;1.6;;
64452;SDS011;50813;52.654;6.766;2023-04-03T07:27:54;28.9;;;3.0;;
64452;SDS011;50813;52.654;6.766;2023-04-03T07:29:31;6.9;;;2.7;;
64452;SDS011;50813;52.654;6.766;2023-04-03T07:31:07;34.21;;;2.31;;
64452;SDS011;50813;52.654;6.766;2023-04-03T07:34:23;35.6;;;4.8;;
64452;SDS011;50813;52.654;6.766;2023-04-03T07:36:00;89.8;;;5.5;;
64452;SDS011;50813;52.654;6.766;2023-04-03T07:37:37;6.8;;;1.8;;
64452;SDS011;50813;52.654;6.766;2023-04-03T07:40:49;121.9;;;6.6;;
64452;SDS011;50813;52.654;6.766;2023-04-03T07:42:26;5.3;;;1.9;;
64452;SDS011;50813;52.654;6.766;2023-04-03T07:44:02;3.6;;;1.5;;
64452;SDS011;50813;52.654;6.766;2023-04-03T07:45:40;6.0;;;1.9;;
64452;SDS011;50813;52.654;6.766;2023-04-03T07:48:54;6.6;;;1.9;;
64452;SDS011;50813;52.654;6.766;2023-04-03T07:50:30;6.5;;;1.8;;
64452;SDS011;50813;52.654;6.766;2023-04-03T07:52:07;6.7;;;2.31;;
64452;SDS011;50813;52.654;6.766;2023-04-03T07:55:19;4.5;;;1.6;;
64452;SDS011;50813;52.654;6.766;2023-04-03T07:56:55;5.5;;;1.6;;
64452;SDS011;50813;52.654;6.766;2023-04-03T07:58:31;7.4;;;1.9;;
64452;SDS011;50813;52.654;6.766;2023-04-03T08:01:44;4.2;;;1.6;;
64452;SDS011;50813;52.654;6.766;2023-04-03T08:03:20;4.41;;;2.0;;
64452;SDS011;50813;52.654;6.766;2023-04-03T08:04:57;112.4;;;5.2;;
64452;SDS011;50813;52.654;6.766;2023-04-03T08:06:33;4.2;;;1.3;;
64452;SDS011;50813;52.654;6.766;2023-04-03T08:09:47;13.2;;;3.6;;
64452;SDS011;50813;52.654;6.766;2023-04-03T08:11:23;43.1;;;4.61;;
64452;SDS011;50813;52.654;6.766;2023-04-03T08:12:59;2.9;;;1.5;;
64452;SDS011;50813;52.654;6.766;2023-04-03T08:16:14;252.9;;;16.7;;
64452;SDS011;50813;52.654;6.766;2023-04-03T08:17:54;35.81;;;4.3;;
64452;SDS011;50813;52.654;6.766;2023-04-03T08:19:30;3.0;;;1.4;;
64452;SDS011;50813;52.654;6.766;2023-04-03T08:21:07;31.0;;;4.3;;
64452;SDS011;50813;52.654;6.766;2023-04-03T08:24:20;38.81;;;4.0;;
64452;SDS011;50813;52.654;6.766;2023-04-03T08:25:56;4.0;;;1.5;;
64452;SDS011;50813;52.654;6.766;2023-04-03T08:27:32;10.21;;;3.2;;
64452;SDS011;50813;52.654;6.766;2023-04-03T08:30:46;11.4;;;3.1;;
64452;SDS011;50813;52.654;6.766;2023-04-03T08:32:22;15.7;;;3.5;;
64452;SDS011;50813;52.654;6.766;2023-04-03T08:33:58;5.5;;;1.8;;
64452;SDS011;50813;52.654;6.766;2023-04-03T08:37:14;41.7;;;6.8;;
64452;SDS011;50813;52.654;6.766;2023-04-03T08:38:50;50.0;;;4.5;;
64452;SDS011;50813;52.654;6.766;2023-04-03T08:40:28;65.8;;;5.7;;
64452;SDS011;50813;52.654;6.766;2023-04-03T08:42:05;11.1;;;2.7;;
64452;SDS011;50813;52.654;6.766;2023-04-03T08:45:42;23.0;;;3.7;;
64452;SDS011;50813;52.654;6.766;2023-04-03T08:47:23;46.2;;;5.8;;
64452;SDS011;50813;52.654;6.766;2023-04-03T08:49:04;3.9;;;1.4;;
64452;SDS011;50813;52.654;6.766;2023-04-03T08:50:50;6.0;;;1.7;;
64452;SDS011;50813;52.654;6.766;2023-04-03T08:52:32;20.6;;;4.1;;
64452;SDS011;50813;52.654;6.766;2023-04-03T08:56:03;166.7;;;46.9;;
64452;SDS011;50813;52.654;6.766;2023-04-03T08:57:44;294.5;;;147.81;;
64452;SDS011;50813;52.654;6.766;2023-04-03T08:59:24;143.71;;;74.7;;
64452;SDS011;50813;52.654;6.766;2023-04-03T09:01:05;2.8;;;2.4;;
64452;SDS011;50813;52.654;6.766;2023-04-03T09:04:31;197.5;;;185.3;;
64452;SDS011;50813;52.654;6.766;2023-04-03T09:06:10;910.0;;;838.0;;
64452;SDS011;50813;52.654;6.766;2023-04-03T09:07:52;989.0;;;896.6;;
64452;SDS011;50813;52.654;6.766;2023-04-03T09:09:36;1999.9;;;999.9;;
64452;SDS011;50813;52.654;6.766;2023-04-03T09:13:01;925.0;;;854.0;;
64452;SDS011;50813;52.654;6.766;2023-04-03T09:14:46;518.21;;;468.7;;
64452;SDS011;50813;52.654;6.766;2023-04-03T09:16:35;1232.61;;;999.9;;
64452;SDS011;50813;52.654;6.766;2023-04-03T09:18:25;1999.9;;;999.9;;
64452;SDS011;50813;52.654;6.766;2023-04-03T09:20:10;1999.9;;;999.9;;
64452;SDS011;50813;52.654;6.766;2023-04-03T09:21:56;1474.5;;;999.9;;
64452;SDS011;50813;52.654;6.766;2023-04-03T09:25:18;1080.6;;;946.9;;
64452;SDS011;50813;52.654;6.766;2023-04-03T09:26:58;1999.9;;;999.9;;
64452;SDS011;50813;52.654;6.766;2023-04-03T09:28:41;1999.9;;;999.9;;
64452;SDS011;50813;52.654;6.766;2023-04-03T09:30:19;1999.9;;;999.9;;
64452;SDS011;50813;52.654;6.766;2023-04-03T09:33:36;1999.9;;;999.9;;
64452;SDS011;50813;52.654;6.766;2023-04-03T09:35:17;1999.9;;;999.9;;
64452;SDS011;50813;52.654;6.766;2023-04-03T09:36:57;1999.9;;;999.9;;
64452;SDS011;50813;52.654;6.766;2023-04-03T09:38:34;1999.9;;;999.9;;
64452;SDS011;50813;52.654;6.766;2023-04-03T09:42:21;1999.9;;;999.9;;
64452;SDS011;50813;52.654;6.766;2023-04-03T09:43:59;1999.9;;;999.9;;
64452;SDS011;50813;52.654;6.766;2023-04-03T09:45:35;1999.9;;;999.9;;
64452;SDS011;50813;52.654;6.766;2023-04-03T09:47:17;1999.9;;;999.9;;
64452;SDS011;50813;52.654;6.766;2023-04-03T09:49:02;1681.5;;;999.9;;
64452;SDS011;50813;52.654;6.766;2023-04-03T09:52:33;1999.9;;;999.9;;
64452;SDS011;50813;52.654;6.766;2023-04-03T09:54:26;1999.9;;;999.9;;
64452;SDS011;50813;52.654;6.766;2023-04-03T09:56:18;1999.9;;;999.9;;
64452;SDS011;50813;52.654;6.766;2023-04-03T09:57:59;1999.9;;;999.9;;
64452;SDS011;50813;52.654;6.766;2023-04-03T09:59:40;982.0;;;898.3;;
64452;SDS011;50813;52.654;6.766;2023-04-03T10:03:03;833.3;;;766.2;;
64452;SDS011;50813;52.654;6.766;2023-04-03T10:04:41;863.2;;;791.6;;
64452;SDS011;50813;52.654;6.766;2023-04-03T10:06:21;1479.9;;;999.9;;
64452;SDS011;50813;52.654;6.766;2023-04-03T10:08:07;1163.5;;;999.9;;
64452;SDS011;50813;52.654;6.766;2023-04-03T10:09:59;1163.5;;;999.9;;
64452;SDS011;50813;52.654;6.766;2023-04-03T10:13:34;908.2;;;823.1;;
64452;SDS011;50813;52.654;6.766;2023-04-03T10:15:11;923.1;;;834.6;;
64452;SDS011;50813;52.654;6.766;2023-04-03T10:16:51;851.7;;;772.6;;
64452;SDS011;50813;52.654;6.766;2023-04-03T10:18:37;851.9;;;766.2;;
64452;SDS011;50813;52.654;6.766;2023-04-03T10:22:13;828.9;;;761.4;;
64452;SDS011;50813;52.654;6.766;2023-04-03T10:23:57;931.7;;;861.0;;
64452;SDS011;50813;52.654;6.766;2023-04-03T10:25:46;874.7;;;799.6;;
64452;SDS011;50813;52.654;6.766;2023-04-03T10:27:34;867.5;;;785.7;;
64452;SDS011;50813;52.654;6.766;2023-04-03T10:29:21;821.1;;;753.7;;
64452;SDS011;50813;52.654;6.766;2023-04-03T10:31:15;892.0;;;803.8;;
64452;SDS011;50813;52.654;6.766;2023-04-03T10:33:01;905.3;;;819.7;;
64452;SDS011;50813;52.654;6.766;2023-04-03T10:36:38;1054.1;;;965.4;;
64452;SDS011;50813;52.654;6.766;2023-04-03T10:38:23;980.0;;;903.1;;
64452;SDS011;50813;52.654;6.766;2023-04-03T10:40:15;899.4;;;820.4;;
64452;SDS011;50813;52.654;6.766;2023-04-03T10:42:05;732.4;;;677.7;;
64452;SDS011;50813;52.654;6.766;2023-04-03T10:43:53;786.9;;;726.5;;
64452;SDS011;50813;52.654;6.766;2023-04-03T10:45:51;1018.2;;;932.6;;
64452;SDS011;50813;52.654;6.766;2023-04-03T10:49:24;768.5;;;707.9;;
64452;SDS011;50813;52.654;6.766;2023-04-03T10:51:13;935.6;;;853.5;;
64452;SDS011;50813;52.654;6.766;2023-04-03T10:53:01;986.3;;;900.8;;
64452;SDS011;50813;52.654;6.766;2023-04-03T10:54:45;990.5;;;891.7;;
64452;SDS011;50813;52.654;6.766;2023-04-03T10:56:31;1178.5;;;932.5;;
64452;SDS011;50813;52.654;6.766;2023-04-03T10:58:16;1162.8;;;999.9;;
64452;SDS011;50813;52.654;6.766;2023-04-03T11:01:41;1065.3;;;951.9;;
64452;SDS011;50813;52.654;6.766;2023-04-03T11:03:24;1127.61;;;999.9;;
64452;SDS011;50813;52.654;6.766;2023-04-03T11:05:07;1101.0;;;998.3;;
64452;SDS011;50813;52.654;6.766;2023-04-03T11:06:56;895.2;;;809.9;;
64452;SDS011;50813;52.654;6.766;2023-04-03T11:08:38;1195.0;;;999.9;;
64452;SDS011;50813;52.654;6.766;2023-04-03T11:12:03;1028.5;;;934.5;;
64452;SDS011;50813;52.654;6.766;2023-04-03T11:13:49;1105.2;;;990.0;;
64452;SDS011;50813;52.654;6.766;2023-04-03T11:15:30;1030.6;;;925.6;;
64452;SDS011;50813;52.654;6.766;2023-04-03T11:17:11;1379.5;;;999.9;;
64452;SDS011;50813;52.654;6.766;2023-04-03T11:19:01;1117.2;;;999.9;;
64452;SDS011;50813;52.654;6.766;2023-04-03T11:22:38;1124.3;;;999.9;;
64452;SDS011;50813;52.654;6.766;2023-04-03T11:24:20;998.4;;;903.1;;
64452;SDS011;50813;52.654;6.766;2023-04-03T11:26:04;983.9;;;899.0;;
64452;SDS011;50813;52.654;6.766;2023-04-03T11:27:48;1109.7;;;999.9;;
64452;SDS011;50813;52.654;6.766;2023-04-03T11:29:32;1098.5;;;988.5;;
64452;SDS011;50813;52.654;6.766;2023-04-03T11:33:14;1055.2;;;961.5;;
64452;SDS011;50813;52.654;6.766;2023-04-03T11:35:12;1074.7;;;976.3;;
64452;SDS011;50813;52.654;6.766;2023-04-03T11:36:52;1123.3;;;999.9;;
64452;SDS011;50813;52.654;6.766;2023-04-03T11:38:31;1115.41;;;999.9;;
64452;SDS011;50813;52.654;6.766;2023-04-03T11:40:18;1058.5;;;959.3;;
64452;SDS011;50813;52.654;6.766;2023-04-03T11:42:17;1015.3;;;927.3;;
64452;SDS011;50813;52.654;6.766;2023-04-03T11:44:05;829.4;;;763.8;;
64452;SDS011;50813;52.654;6.766;2023-04-03T11:46:09;826.4;;;757.4;;
64452;SDS011;50813;52.654;6.766;2023-04-03T11:49:59;727.0;;;674.6;;
64452;SDS011;50813;52.654;6.766;2023-04-03T11:51:39;697.8;;;648.5;;
64452;SDS011;50813;52.654;6.766;2023-04-03T11:53:29;540.0;;;502.5;;
64452;SDS011;50813;52.654;6.766;2023-04-03T11:56:26;817.6;;;751.2;;
64452;SDS011;50813;52.654;6.766;2023-04-03T11:58:13;647.0;;;600.6;;
64452;SDS011;50813;52.654;6.766;2023-04-03T11:59:51;565.6;;;529.3;;
64452;SDS011;50813;52.654;6.766;2023-04-03T12:01:43;748.0;;;694.8;;
64452;SDS011;50813;52.654;6.766;2023-04-03T12:04:08;540.6;;;502.4;;
64452;SDS011;50813;52.654;6.766;2023-04-03T12:06:41;569.21;;;522.21;;
64452;SDS011;50813;52.654;6.766;2023-04-03T12:08:47;430.8;;;405.5;;
64452;SDS011;50813;52.654;6.766;2023-04-03T12:10:26;487.4;;;451.6;;
64452;SDS011;50813;52.654;6.766;2023-04-03T12:12:21;365.3;;;340.4;;
64452;SDS011;50813;52.654;6.766;2023-04-03T12:14:04;568.9;;;524.1;;
64452;SDS011;50813;52.654;6.766;2023-04-03T12:15:51;541.1;;;501.1;;
64452;SDS011;50813;52.654;6.766;2023-04-03T12:19:25;180.2;;;169.3;;
64452;SDS011;50813;52.654;6.766;2023-04-03T12:21:10;143.5;;;134.9;;
64452;SDS011;50813;52.654;6.766;2023-04-03T12:23:06;388.3;;;357.3;;
64452;SDS011;50813;52.654;6.766;2023-04-03T12:24:44;167.0;;;157.9;;
64452;SDS011;50813;52.654;6.766;2023-04-03T12:26:23;448.0;;;416.6;;
64452;SDS011;50813;52.654;6.766;2023-04-03T12:28:04;302.11;;;273.91;;
64452;SDS011;50813;52.654;6.766;2023-04-03T12:31:31;313.8;;;295.2;;
64452;SDS011;50813;52.654;6.766;2023-04-03T12:33:24;248.1;;;233.6;;
64452;SDS011;50813;52.654;6.766;2023-04-03T12:35:14;226.9;;;214.4;;
64452;SDS011;50813;52.654;6.766;2023-04-03T12:37:01;129.4;;;120.6;;
64452;SDS011;50813;52.654;6.766;2023-04-03T12:38:52;255.5;;;241.3;;
64452;SDS011;50813;52.654;6.766;2023-04-03T12:46:17;47.1;;;44.4;;
64452;SDS011;50813;52.654;6.766;2023-04-03T12:47:55;122.7;;;114.3;;
64452;SDS011;50813;52.654;6.766;2023-04-03T12:49:35;105.5;;;99.1;;
64452;SDS011;50813;52.654;6.766;2023-04-03T12:52:56;3.9;;;3.5;;
64452;SDS011;50813;52.654;6.766;2023-04-03T12:54:36;263.3;;;249.4;;
64452;SDS011;50813;52.654;6.766;2023-04-03T12:56:18;54.5;;;50.7;;